Time;durP1;ratioP1;P1;durP2;ratioP2;P2;SDS_P1;SDS_P2;PMS_P1;PMS_P2;Temp;Humidity;BMP_temperature;BMP_pressure;BME280_temperature;BME280_humidity;BME280_pressure;Samples;Min_cycle;Max_cycle;Signal;HPM_P1;HPM_P2
2022/09/30 00:01:09;;;;;;;;;;;8.30;99.90;;;;;;5091862;28;20074;-45
2022/09/30 00:03:36;;;;;;;1.02;0.55;;;8.30;99.90;;;;;;5100838;28;20082;-46
2022/09/30 00:06:06;;;;;;;3.13;0.50;;;8.30;99.90;;;;;;5099538;28;20261;-46
2022/09/30 00:08:38;;;;;;;5.07;0.68;;;8.20;99.90;;;;;;5090505;28;20090;-46
2022/09/30 00:11:15;;;;;;;1.35;0.60;;;8.30;99.90;;;;;;5099268;28;20075;-46
2022/09/30 00:13:42;;;;;;;2.55;0.63;;;8.30;99.90;;;;;;5096207;28;20389;-47
2022/09/30 00:16:10;;;;;;;2.35;0.38;;;8.30;99.90;;;;;;5097919;28;20078;-45
2022/09/30 00:18:38;;;;;;;0.30;0.30;;;8.30;99.90;;;;;;5090743;28;20036;-46
2022/09/30 00:21:07;;;;;;;0.63;0.30;;;8.30;99.90;;;;;;5105170;28;20078;-45
2022/09/30 00:23:36;;;;;;;1.27;0.35;;;8.20;99.90;;;;;;5095785;28;20538;-45
2022/09/30 00:26:07;;;;;;;0.98;0.55;;;8.20;99.90;;;;;;5090515;28;20124;-45
2022/09/30 00:28:34;;;;;;;1.25;0.40;;;8.30;99.90;;;;;;5086835;28;20131;-46
2022/09/30 00:31:03;;;;;;;0.28;0.28;;;8.30;99.90;;;;;;5106271;28;20082;-45
2022/09/30 00:33:30;;;;;;;0.73;0.28;;;8.30;99.90;;;;;;5098980;28;20404;-45
2022/09/30 00:35:56;;;;;;;0.80;0.40;;;8.20;99.90;;;;;;5090404;28;20050;-46
2022/09/30 00:38:23;;;;;;;3.05;0.30;;;8.10;99.90;;;;;;5092988;28;20075;-45
2022/09/30 00:40:51;;;;;;;0.45;0.20;;;8.20;99.90;;;;;;5100317;28;20047;-47
2022/09/30 00:43:36;;;;;;;;;;;8.10;99.90;;;;;;5106878;28;20036;-45
2022/09/30 00:46:04;;;;;;;1.35;0.30;;;8.20;99.90;;;;;;5088572;28;19920;-46
2022/09/30 00:48:37;;;;;;;0.47;0.40;;;8.20;99.90;;;;;;5099029;28;20519;-45
2022/09/30 00:51:06;;;;;;;0.98;0.43;;;8.20;99.90;;;;;;5098851;28;20588;-45
2022/09/30 00:53:49;;;;;;;1.08;0.35;;;8.20;99.90;;;;;;5075330;28;20071;-46
2022/09/30 00:56:30;;;;;;;0.95;0.30;;;8.20;99.90;;;;;;5094848;28;20115;-47
2022/09/30 00:59:11;;;;;;;4.32;0.43;;;8.20;99.90;;;;;;5106238;28;20448;-46
2022/09/30 01:01:40;;;;;;;2.50;0.30;;;8.20;99.90;;;;;;5096154;28;20477;-45
2022/09/30 01:04:13;;;;;;;2.05;0.40;;;8.20;99.90;;;;;;5094417;28;20047;-45
2022/09/30 01:06:41;;;;;;;1.08;0.50;;;8.20;99.90;;;;;;5105196;28;20395;-45
2022/09/30 01:09:09;;;;;;;1.98;0.93;;;8.20;99.90;;;;;;5105692;28;20126;-46
2022/09/30 01:11:36;;;;;;;2.42;1.50;;;8.20;99.90;;;;;;5096282;28;20070;-45
2022/09/30 01:14:23;;;;;;;2.67;1.50;;;8.20;99.90;;;;;;5093551;28;20079;-45
2022/09/30 01:17:20;;;;;;;2.13;1.17;;;8.20;99.90;;;;;;5072067;28;20119;-45
2022/09/30 01:19:50;;;;;;;1.40;0.80;;;8.20;99.90;;;;;;5074413;28;20119;-45
2022/09/30 01:22:42;;;;;;;0.95;0.77;;;8.20;99.90;;;;;;5092134;28;20044;-45
2022/09/30 01:25:40;;;;;;;2.83;0.68;;;8.20;99.90;;;;;;5093360;28;20067;-47
2022/09/30 01:28:28;;;;;;;1.83;0.98;;;8.20;99.90;;;;;;5094044;28;20044;-45
2022/09/30 01:31:01;;;;;;;;;;;8.20;99.90;;;;;;5090094;28;20072;-45
2022/09/30 01:33:57;;;;;;;1.73;0.70;;;8.20;99.90;;;;;;5112943;28;19920;-45
2022/09/30 01:36:42;;;;;;;1.88;0.70;;;8.10;99.90;;;;;;5091214;28;20091;-45
2022/09/30 01:39:37;;;;;;;1.40;1.05;;;8.20;99.90;;;;;;5093723;28;20103;-45
2022/09/30 01:42:16;;;;;;;2.42;1.13;;;8.20;99.90;;;;;;5091241;28;20040;-46
2022/09/30 01:44:53;;;;;;;5.03;0.65;;;8.30;99.90;;;;;;5092344;28;20504;-45
2022/09/30 01:47:26;;;;;;;1.08;0.57;;;8.30;99.90;;;;;;5093182;28;20122;-46
2022/09/30 01:50:08;;;;;;;0.30;0.30;;;8.30;99.90;;;;;;5089252;28;20079;-45
2022/09/30 01:52:48;;;;;;;0.43;0.40;;;8.30;99.90;;;;;;5085480;28;20071;-45
2022/09/30 01:55:26;;;;;;;1.90;0.70;;;8.30;99.90;;;;;;5092846;28;20540;-45
2022/09/30 01:58:15;;;;;;;1.30;0.80;;;8.30;99.90;;;;;;5098941;28;20152;-45
2022/09/30 02:00:49;;;;;;;1.70;0.70;;;8.30;99.90;;;;;;5092145;28;20488;-44
2022/09/30 02:03:32;;;;;;;0.73;0.40;;;8.30;99.90;;;;;;5115499;22;20564;-47
2022/09/30 02:06:10;;;;;;;0.70;0.30;;;8.40;99.90;;;;;;5109755;28;20071;-47
2022/09/30 02:08:43;;;;;;;0.95;0.60;;;8.30;99.90;;;;;;5104423;27;20031;-48
2022/09/30 02:11:19;;;;;;;1.38;0.40;;;8.30;99.90;;;;;;5106368;27;20052;-48
2022/09/30 02:13:58;;;;;;;1.88;0.60;;;8.30;99.90;;;;;;5093021;28;20136;-47
2022/09/30 02:16:37;;;;;;;4.68;1.00;;;8.40;99.90;;;;;;5087377;28;20075;-47
2022/09/30 02:19:15;;;;;;;2.78;0.70;;;8.40;99.90;;;;;;5092727;28;20069;-46
2022/09/30 02:21:47;;;;;;;0.75;0.50;;;8.40;99.90;;;;;;5091896;28;20044;-47
2022/09/30 02:24:17;;;;;;;1.45;0.50;;;8.40;99.90;;;;;;5092362;28;20048;-47
2022/09/30 02:26:46;;;;;;;0.47;0.47;;;8.30;99.90;;;;;;5086393;28;20599;-47
2022/09/30 02:29:19;;;;;;;0.90;0.57;;;8.30;99.90;;;;;;5102130;28;20039;-46
2022/09/30 02:31:51;;;;;;;1.98;1.10;;;8.30;99.90;;;;;;5112972;28;20059;-48
2022/09/30 02:34:31;;;;;;;2.38;1.50;;;8.30;99.90;;;;;;5093837;28;20081;-48
2022/09/30 02:37:13;;;;;;;5.82;1.80;;;8.40;99.90;;;;;;5092623;28;20068;-46
2022/09/30 02:40:09;;;;;;;1.35;0.88;;;8.30;99.90;;;;;;5092489;28;20591;-47
2022/09/30 02:42:37;;;;;;;4.72;1.27;;;8.30;99.90;;;;;;5087944;28;20089;-47
2022/09/30 02:45:10;;;;;;;2.42;1.52;;;8.30;99.90;;;;;;5092001;28;20493;-46
2022/09/30 02:48:18;;;;;;;5.05;1.48;;;8.40;99.90;;;;;;5092197;28;20118;-46
2022/09/30 02:50:59;;;;;;;4.32;2.45;;;8.40;99.90;;;;;;5089837;28;20543;-46
2022/09/30 02:53:35;;;;;;;5.60;3.28;;;8.30;99.90;;;;;;5082397;28;21327;-47
2022/09/30 02:56:20;;;;;;;12.05;5.22;;;8.40;99.90;;;;;;5095121;28;20343;-48
2022/09/30 02:58:50;;;;;;;9.32;4.45;;;8.30;99.90;;;;;;5092256;28;20078;-46
2022/09/30 03:01:17;;;;;;;7.15;4.03;;;8.30;99.90;;;;;;5091975;28;20389;-46
2022/09/30 03:03:54;;;;;;;9.25;4.70;;;8.40;99.90;;;;;;5088387;28;20048;-47
2022/09/30 03:06:21;;;;;;;7.57;4.05;;;8.40;99.90;;;;;;5090458;28;20086;-47
2022/09/30 03:08:47;;;;;;;7.78;4.13;;;8.50;99.90;;;;;;5091597;28;20079;-47
2022/09/30 03:11:20;;;;;;;7.57;4.30;;;8.40;99.90;;;;;;5092098;28;20132;-46
2022/09/30 03:14:05;;;;;;;9.52;4.55;;;8.40;99.90;;;;;;5084010;28;20125;-47
2022/09/30 03:16:52;;;;;;;10.70;5.10;;;8.40;99.90;;;;;;5083336;28;20060;-47
2022/09/30 03:19:32;;;;;;;10.13;4.78;;;8.40;99.90;;;;;;5090717;28;20123;-47
2022/09/30 03:22:22;;;;;;;9.85;5.28;;;8.40;99.90;;;;;;5091442;28;20032;-47
2022/09/30 03:25:13;;;;;;;8.65;4.00;;;8.40;99.90;;;;;;5088077;28;20113;-46
2022/09/30 03:28:03;;;;;;;9.57;3.60;;;8.40;99.90;;;;;;5081919;28;20072;-46
2022/09/30 03:30:33;;;;;;;7.28;3.30;;;8.40;99.90;;;;;;5091026;28;20032;-46
2022/09/30 03:33:22;;;;;;;7.85;2.70;;;8.40;99.90;;;;;;5091542;28;20068;-46
2022/09/30 03:36:04;;;;;;;14.45;2.42;;;8.40;99.90;;;;;;5086133;28;20115;-47
2022/09/30 03:38:40;;;;;;;3.05;1.60;;;8.50;99.90;;;;;;5095125;28;20470;-47
2022/09/30 03:41:27;;;;;;;6.50;1.73;;;8.50;99.90;;;;;;5088405;28;20094;-46
2022/09/30 03:44:03;;;;;;;3.72;2.30;;;8.40;99.90;;;;;;5079433;28;20068;-46
2022/09/30 03:46:46;;;;;;;4.13;2.33;;;8.40;99.90;;;;;;5089981;28;20424;-47
2022/09/30 03:49:20;;;;;;;2.83;1.70;;;8.40;99.90;;;;;;5090091;28;20054;-48
2022/09/30 03:51:46;;;;;;;5.93;2.25;;;8.40;99.90;;;;;;5089445;28;20048;-47
2022/09/30 03:54:16;;;;;;;4.95;2.45;;;8.30;99.90;;;;;;5088618;28;20055;-46
2022/09/30 03:56:43;;;;;;;3.53;2.05;;;8.30;99.90;;;;;;5091117;28;20119;-47
2022/09/30 03:59:23;;;;;;;5.28;2.47;;;8.30;99.90;;;;;;5090803;28;20114;-46
2022/09/30 04:01:51;;;;;;;5.28;2.33;;;8.30;99.90;;;;;;5088991;28;20119;-47
2022/09/30 04:04:18;;;;;;;4.60;2.20;;;8.30;99.90;;;;;;5088114;28;20647;-49
2022/09/30 04:06:45;;;;;;;3.10;2.03;;;8.30;99.90;;;;;;5083060;28;20404;-46
2022/09/30 04:09:12;;;;;;;4.15;2.10;;;8.30;99.90;;;;;;5090781;28;20072;-48
2022/09/30 04:11:39;;;;;;;5.82;2.10;;;8.20;99.90;;;;;;5102040;28;20443;-47
2022/09/30 04:14:06;;;;;;;6.85;2.15;;;8.20;99.90;;;;;;5081686;28;20116;-49
2022/09/30 04:16:33;;;;;;;4.93;2.13;;;8.10;99.90;;;;;;5080063;28;20119;-46
2022/09/30 04:19:00;;;;;;;3.08;1.83;;;8.00;99.90;;;;;;5090224;28;20036;-48
2022/09/30 04:21:27;;;;;;;5.38;2.30;;;8.00;99.90;;;;;;5089928;28;20845;-46
2022/09/30 04:23:55;;;;;;;4.55;2.13;;;8.00;99.90;;;;;;5076921;28;20827;-46
2022/09/30 04:26:21;;;;;;;4.15;2.20;;;7.90;99.90;;;;;;5090209;28;20135;-50
2022/09/30 04:28:49;;;;;;;3.75;2.08;;;8.00;99.90;;;;;;5090496;28;20072;-47
2022/09/30 04:31:16;;;;;;;;;;;8.00;99.90;;;;;;5090301;28;20060;-47
2022/09/30 04:33:44;;;;;;;7.97;3.95;;;8.00;99.90;;;;;;5090182;28;19923;-48
2022/09/30 04:36:10;;;;;;;;;;;8.10;99.90;;;;;;5094541;28;20547;-47
2022/09/30 04:38:38;;;;;;;3.70;2.38;;;8.10;99.90;;;;;;5093966;28;19998;-47
2022/09/30 04:41:06;;;;;;;2.33;1.50;;;8.10;99.90;;;;;;5091574;28;20093;-46
2022/09/30 04:43:33;;;;;;;2.72;1.42;;;8.10;99.90;;;;;;5085856;28;20055;-46
2022/09/30 04:46:00;;;;;;;1.60;0.95;;;8.10;99.90;;;;;;5094225;28;20059;-47
2022/09/30 04:48:29;;;;;;;1.38;0.90;;;8.10;99.90;;;;;;5093727;28;20048;-47
2022/09/30 04:50:58;;;;;;;1.67;0.73;;;8.00;99.90;;;;;;5092990;28;20093;-46
2022/09/30 04:53:25;;;;;;;1.00;0.70;;;8.00;99.90;;;;;;5105652;28;20064;-46
2022/09/30 04:55:58;;;;;;;3.05;0.93;;;8.00;99.90;;;;;;5107603;28;20051;-47
2022/09/30 04:58:25;;;;;;;6.22;1.60;;;8.00;99.90;;;;;;5093924;28;20101;-47
2022/09/30 05:01:06;;;;;;;5.97;1.30;;;8.10;99.90;;;;;;5087858;28;20068;-47
2022/09/30 05:03:33;;;;;;;2.90;1.80;;;8.10;99.90;;;;;;5090580;28;20043;-47
2022/09/30 05:06:01;;;;;;;6.68;1.55;;;8.10;99.90;;;;;;5093592;28;20070;-47
2022/09/30 05:08:28;;;;;;;2.92;1.30;;;8.10;99.90;;;;;;5090552;28;20063;-48
2022/09/30 05:11:01;;;;;;;4.13;1.70;;;8.10;99.90;;;;;;5088550;28;20072;-47
2022/09/30 05:13:34;;;;;;;2.65;1.52;;;8.10;99.90;;;;;;5093634;28;20128;-47
2022/09/30 05:16:01;;;;;;;2.47;1.30;;;8.20;99.90;;;;;;5093699;28;20128;-47
2022/09/30 05:18:28;;;;;;;2.42;1.50;;;8.20;99.90;;;;;;5086570;28;20040;-46
2022/09/30 05:20:56;;;;;;;3.50;1.42;;;8.20;99.90;;;;;;5094049;28;20086;-48
2022/09/30 05:23:25;;;;;;;2.50;1.20;;;8.20;99.90;;;;;;5093598;28;20503;-48
2022/09/30 05:25:52;;;;;;;1.55;0.90;;;8.20;99.90;;;;;;5086417;28;20515;-47
2022/09/30 05:28:19;;;;;;;4.97;2.20;;;8.20;99.90;;;;;;5084169;28;20600;-50
2022/09/30 05:30:46;;;;;;;3.72;1.88;;;8.10;99.90;;;;;;5086028;28;20059;-46
2022/09/30 05:33:13;;;;;;;7.13;1.63;;;8.10;99.90;;;;;;5083560;28;20032;-48
2022/09/30 05:35:41;;;;;;;1.90;1.65;;;8.10;99.90;;;;;;5091465;28;20064;-48
2022/09/30 05:38:09;;;;;;;5.88;2.65;;;8.10;99.90;;;;;;5087650;28;20079;-48
2022/09/30 05:40:40;;;;;;;5.60;2.85;;;8.20;99.90;;;;;;5093414;28;20089;-46
2022/09/30 05:43:08;;;;;;;4.80;2.13;;;8.20;99.90;;;;;;5091398;28;20127;-46
2022/09/30 05:45:37;;;;;;;6.70;2.10;;;8.20;99.90;;;;;;5085506;28;20519;-46
2022/09/30 05:48:04;;;;;;;6.03;2.60;;;8.20;99.90;;;;;;5091503;28;20040;-46
2022/09/30 05:50:30;;;;;;;3.40;2.10;;;8.30;99.90;;;;;;5086921;28;20146;-46
2022/09/30 05:52:57;;;;;;;6.57;3.20;;;8.30;99.90;;;;;;5092496;28;20071;-47
2022/09/30 05:55:24;;;;;;;5.30;2.90;;;8.30;99.90;;;;;;5092536;28;20048;-48
2022/09/30 05:57:51;;;;;;;6.47;2.08;;;8.30;99.90;;;;;;5087138;28;20075;-46
2022/09/30 06:00:19;;;;;;;5.05;2.22;;;8.30;99.90;;;;;;5091415;28;20068;-47
2022/09/30 06:02:49;;;;;;;;;;;8.30;99.90;;;;;;5093655;28;20039;-46
2022/09/30 06:05:16;;;;;;;5.47;2.70;;;8.40;99.90;;;;;;5083770;28;19927;-47
2022/09/30 06:07:43;;;;;;;5.22;2.60;;;8.40;99.90;;;;;;5098281;28;20062;-47
2022/09/30 06:10:11;;;;;;;3.92;2.42;;;8.50;99.90;;;;;;5112746;28;20075;-46
2022/09/30 06:12:38;;;;;;;6.38;2.58;;;8.50;99.90;;;;;;5107191;28;20048;-47
2022/09/30 06:15:05;;;;;;;;;;;8.50;99.90;;;;;;5088833;28;20147;-46
2022/09/30 06:17:32;;;;;;;4.82;2.47;;;8.50;99.90;;;;;;5104837;28;20406;-47
2022/09/30 06:19:59;;;;;;;4.00;2.22;;;8.60;99.90;;;;;;5113301;28;20122;-47
2022/09/30 06:22:26;;;;;;;4.28;1.23;;;8.60;99.90;;;;;;5097514;28;20063;-47
2022/09/30 06:24:53;;;;;;;2.08;1.15;;;8.50;99.90;;;;;;5099160;28;20063;-46
2022/09/30 06:27:21;;;;;;;1.90;1.20;;;8.60;99.90;;;;;;5112918;28;20569;-47
2022/09/30 06:29:48;;;;;;;1.98;1.20;;;8.60;99.90;;;;;;5100498;28;20092;-47
2022/09/30 06:32:15;;;;;;;2.42;1.00;;;8.70;99.90;;;;;;5089900;28;20113;-50
2022/09/30 06:34:42;;;;;;;;;;;8.70;99.90;;;;;;5092669;28;20076;-49
2022/09/30 06:37:12;;;;;;;2.03;0.80;;;8.80;99.90;;;;;;5083070;28;20007;-48
2022/09/30 06:39:40;;;;;;;1.17;0.70;;;8.90;99.90;;;;;;5092078;28;20089;-46
2022/09/30 06:42:07;;;;;;;3.72;0.90;;;9.00;99.90;;;;;;5091618;28;20122;-46
2022/09/30 06:44:34;;;;;;;1.15;0.80;;;9.00;99.90;;;;;;5087494;28;20035;-47
2022/09/30 06:47:15;;;;;;;1.17;0.70;;;9.10;99.90;;;;;;5092360;28;20396;-46
2022/09/30 06:49:51;;;;;;;2.75;1.38;;;9.20;99.90;;;;;;5092484;28;20476;-47
2022/09/30 06:52:19;;;;;;;3.97;2.13;;;9.20;99.90;;;;;;5087268;28;20110;-46
2022/09/30 06:54:46;;;;;;;4.00;2.38;;;9.20;99.90;;;;;;5091908;28;20071;-47
2022/09/30 06:57:12;;;;;;;5.07;2.17;;;9.30;99.90;;;;;;5092244;28;20043;-48
2022/09/30 06:59:39;;;;;;;4.95;3.05;;;9.30;99.90;;;;;;5087421;28;20155;-47
2022/09/30 07:02:07;;;;;;;4.65;3.15;;;9.30;99.90;;;;;;5081911;28;20079;-47
2022/09/30 07:04:34;;;;;;;5.95;2.85;;;9.40;99.90;;;;;;5089838;28;20546;-47
2022/09/30 07:07:01;;;;;;;6.97;3.88;;;9.50;99.90;;;;;;5091948;28;20067;-46
2022/09/30 07:09:28;;;;;;;7.85;3.60;;;9.50;99.90;;;;;;5091865;28;20475;-47
2022/09/30 07:11:55;;;;;;;9.07;4.78;;;9.60;99.90;;;;;;5081286;28;20119;-47
2022/09/30 07:14:22;;;;;;;5.70;3.40;;;9.70;99.90;;;;;;5091353;28;20131;-47
2022/09/30 07:16:54;;;;;;;9.73;5.20;;;9.80;99.90;;;;;;5088149;28;20145;-47
2022/09/30 07:19:22;;;;;;;9.98;5.40;;;9.90;99.90;;;;;;5090524;28;20043;-49
2022/09/30 07:21:49;;;;;;;13.20;5.53;;;9.90;99.90;;;;;;5091729;28;20036;-47
2022/09/30 07:24:17;;;;;;;10.20;6.00;;;9.90;99.90;;;;;;5070009;28;20067;-48
2022/09/30 07:26:44;;;;;;;11.70;5.50;;;9.90;99.90;;;;;;5086092;28;20078;-47
2022/09/30 07:29:12;;;;;;;10.07;5.70;;;9.80;99.90;;;;;;5090155;28;20484;-47
2022/09/30 07:31:40;;;;;;;9.82;5.22;;;9.80;99.90;;;;;;5099061;28;20067;-47
2022/09/30 07:34:08;;;;;;;9.48;5.60;;;9.80;99.90;;;;;;5068275;28;20040;-47
2022/09/30 07:36:40;;;;;;;10.15;5.40;;;9.80;99.90;;;;;;5072188;28;20040;-47
2022/09/30 07:39:08;;;;;;;13.55;4.85;;;9.90;99.90;;;;;;5090808;28;20051;-51
2022/09/30 07:41:38;;;;;;;8.13;4.80;;;10.00;99.90;;;;;;5091627;28;20086;-47
2022/09/30 07:44:13;;;;;;;8.05;3.85;;;9.90;99.90;;;;;;5081606;28;20044;-47
2022/09/30 07:46:41;;;;;;;7.25;3.80;;;9.90;99.90;;;;;;5084577;28;20075;-47
2022/09/30 07:49:13;;;;;;;7.57;3.83;;;10.00;99.90;;;;;;5091551;28;20549;-46
2022/09/30 07:51:44;;;;;;;8.85;4.68;;;10.10;99.90;;;;;;5091722;28;20051;-46
2022/09/30 07:54:15;;;;;;;7.45;3.70;;;10.30;99.90;;;;;;5084819;28;20570;-47
2022/09/30 07:56:43;;;;;;;9.23;3.72;;;10.40;99.90;;;;;;5091629;28;20118;-47
2022/09/30 07:59:31;;;;;;;9.10;3.65;;;10.40;99.90;;;;;;5091381;28;20064;-47
2022/09/30 08:02:23;;;;;;;7.25;4.20;;;10.40;99.90;;;;;;5079527;28;20040;-48
2022/09/30 08:04:50;;;;;;;13.77;3.90;;;10.60;99.90;;;;;;5076675;28;20044;-48
2022/09/30 08:07:18;;;;;;;8.50;4.18;;;10.60;99.90;;;;;;5071714;28;20125;-49
2022/09/30 08:09:45;;;;;;;5.68;3.63;;;10.80;99.90;;;;;;5074628;28;20467;-49
2022/09/30 08:12:11;;;;;;;8.55;3.60;;;10.90;99.90;;;;;;5074805;28;20040;-48
2022/09/30 08:14:38;;;;;;;5.72;3.75;;;11.00;99.90;;;;;;5073323;28;20116;-49
2022/09/30 08:17:05;;;;;;;5.60;3.38;;;11.00;99.90;;;;;;5069572;28;20132;-50
2022/09/30 08:19:32;;;;;;;3.97;3.10;;;11.10;99.90;;;;;;5074759;28;20048;-49
2022/09/30 08:21:59;;;;;;;4.28;3.00;;;11.30;99.90;;;;;;5074941;28;20070;-49
2022/09/30 08:24:26;;;;;;;7.38;3.75;;;11.40;99.90;;;;;;5072559;28;20113;-49
2022/09/30 08:26:54;;;;;;;8.60;3.60;;;11.30;99.90;;;;;;5080945;28;20048;-50
2022/09/30 08:29:21;;;;;;;11.82;3.47;;;11.30;99.90;;;;;;5075834;28;20475;-49
2022/09/30 08:32:08;;;;;;;4.68;3.45;;;11.40;99.90;;;;;;5065733;28;20048;-52
2022/09/30 08:34:35;;;;;;;11.45;3.72;;;11.60;99.90;;;;;;5062523;28;20497;-51
2022/09/30 08:37:02;;;;;;;8.48;4.63;;;11.70;99.90;;;;;;5054659;28;20053;-52
2022/09/30 08:39:38;;;;;;;7.35;3.83;;;11.70;99.90;;;;;;5054578;28;20044;-48
2022/09/30 08:42:27;;;;;;;5.47;3.83;;;11.90;99.90;;;;;;5062184;28;20139;-50
2022/09/30 08:45:33;;;;;;;6.72;3.85;;;12.10;99.90;;;;;;5073790;28;20044;-51
2022/09/30 08:48:13;;;;;;;7.50;3.97;;;12.20;99.90;;;;;;5074407;28;20079;-48
2022/09/30 08:51:19;;;;;;;5.25;3.10;;;12.20;99.90;;;;;;5072960;28;20488;-49
2022/09/30 08:53:47;;;;;;;9.45;3.97;;;12.20;99.90;;;;;;5067419;28;20052;-49
2022/09/30 08:56:24;;;;;;;5.57;3.50;;;12.20;99.90;;;;;;5074155;28;20509;-51
2022/09/30 08:58:55;;;;;;;6.53;3.13;;;12.20;99.90;;;;;;5066745;28;20075;-49
2022/09/30 09:01:33;;;;;;;6.32;2.90;;;12.40;99.90;;;;;;5074051;28;20041;-49
2022/09/30 09:04:01;;;;;;;3.85;2.97;;;12.40;99.90;;;;;;5073594;28;20048;-50
2022/09/30 09:06:51;;;;;;;5.70;2.97;;;12.40;99.90;;;;;;5071706;28;20072;-49
2022/09/30 09:09:50;;;;;;;4.22;3.05;;;12.40;99.90;;;;;;5074222;28;20048;-49
2022/09/30 09:12:42;;;;;;;3.53;2.17;;;12.50;99.90;;;;;;5073244;28;20044;-49
2022/09/30 09:15:28;;;;;;;3.97;2.53;;;12.60;99.90;;;;;;5064329;28;20098;-50
2022/09/30 09:18:09;;;;;;;4.10;2.85;;;12.60;99.90;;;;;;5072682;28;20049;-49
2022/09/30 09:20:53;;;;;;;7.72;2.80;;;12.70;99.90;;;;;;5072165;28;20430;-49
2022/09/30 09:23:20;;;;;;;5.68;2.53;;;12.80;99.90;;;;;;5072431;28;20116;-49
2022/09/30 09:25:51;;;;;;;4.50;2.75;;;12.70;99.90;;;;;;5071774;28;20107;-48
2022/09/30 09:28:35;;;;;;;3.88;2.50;;;12.80;99.90;;;;;;5072135;28;20048;-49
2022/09/30 09:31:03;;;;;;;5.15;2.90;;;12.90;99.90;;;;;;5073559;28;20079;-49
2022/09/30 09:33:35;;;;;;;4.47;2.53;;;13.00;99.90;;;;;;5072569;28;20102;-46
2022/09/30 09:36:17;;;;;;;5.07;2.63;;;13.30;99.90;;;;;;5073455;28;20489;-48
2022/09/30 09:39:06;;;;;;;3.72;2.50;;;13.40;99.90;;;;;;5071743;28;20076;-49
2022/09/30 09:42:02;;;;;;;3.28;2.00;;;13.40;99.90;;;;;;5073306;28;20045;-48
2022/09/30 09:44:41;;;;;;;2.50;2.10;;;13.40;99.90;;;;;;5072071;28;20114;-49
2022/09/30 09:47:14;;;;;;;6.15;2.58;;;13.50;99.90;;;;;;5072930;28;20124;-49
2022/09/30 09:49:44;;;;;;;3.55;3.00;;;13.40;99.90;;;;;;5067844;28;20068;-49
2022/09/30 09:52:13;;;;;;;5.47;3.20;;;13.40;99.90;;;;;;5072924;28;20501;-50
2022/09/30 09:54:43;;;;;;;4.95;2.92;;;13.50;99.90;;;;;;5072789;28;20076;-49
2022/09/30 09:57:16;;;;;;;3.53;2.33;;;13.40;99.90;;;;;;5072144;28;20075;-47
2022/09/30 10:01:09;;;;;;;4.18;2.65;;;13.40;99.90;;;;;;5071847;28;20079;-48
2022/09/30 10:03:03;;;;;;;7.40;2.92;;;13.50;99.90;;;;;;5074714;28;20497;-50
2022/09/30 10:05:38;;;;;;;7.28;3.35;;;13.60;99.90;;;;;;5072631;28;20454;-49
2022/09/30 10:08:21;;;;;;;6.00;3.30;;;13.60;99.90;;;;;;5072959;28;20051;-48
2022/09/30 10:10:48;;;;;;;5.03;2.70;;;13.40;99.90;;;;;;5049331;28;20494;-51
2022/09/30 10:13:22;;;;;;;4.15;1.80;;;13.30;99.90;;;;;;5072763;28;20068;-50
2022/09/30 10:15:52;;;;;;;3.33;2.13;;;13.30;99.90;;;;;;5072583;28;20103;-48
2022/09/30 10:18:32;;;;;;;4.30;2.17;;;13.20;99.90;;;;;;5071306;28;20429;-48
2022/09/30 10:21:19;;;;;;;3.45;2.78;;;13.10;99.90;;;;;;5072433;28;20562;-48
2022/09/30 10:23:46;;;;;;;3.72;2.55;;;13.00;99.90;;;;;;5072276;28;20555;-50
2022/09/30 10:26:12;;;;;;;3.88;2.80;;;12.90;99.90;;;;;;5064433;28;20096;-49
2022/09/30 10:28:47;;;;;;;3.63;2.67;;;12.80;99.90;;;;;;5071931;28;20047;-49
2022/09/30 10:31:22;;;;;;;4.00;2.40;;;12.60;99.90;;;;;;5072602;28;20051;-49
2022/09/30 10:33:55;;;;;;;3.80;2.40;;;12.60;99.90;;;;;;5070788;28;20578;-48
2022/09/30 10:36:30;;;;;;;5.57;2.28;;;12.70;99.90;;;;;;5072239;28;20080;-48
2022/09/30 10:39:00;;;;;;;4.57;2.88;;;12.90;99.90;;;;;;5072430;28;20068;-50
2022/09/30 10:41:34;;;;;;;6.15;2.35;;;13.00;99.90;;;;;;5072358;28;20037;-50
2022/09/30 10:44:12;;;;;;;4.55;2.08;;;13.00;99.90;;;;;;5071192;28;20128;-52
2022/09/30 10:46:40;;;;;;;;;;;13.20;99.90;;;;;;5072586;28;20048;-48
2022/09/30 10:49:23;;;;;;;4.72;1.70;;;13.30;99.90;;;;;;5072316;28;19964;-49
2022/09/30 10:51:50;;;;;;;3.65;1.95;;;13.60;99.90;;;;;;5067609;28;20558;-48
2022/09/30 10:54:53;;;;;;;2.53;1.52;;;13.80;99.90;;;;;;5071282;28;20064;-49
2022/09/30 10:57:22;;;;;;;2.40;1.98;;;14.00;99.90;;;;;;5072198;28;20128;-49
2022/09/30 10:59:56;;;;;;;2.15;1.83;;;14.00;99.90;;;;;;5070515;28;20131;-51
2022/09/30 11:03:02;;;;;;;3.88;2.40;;;14.00;99.90;;;;;;5071494;28;20111;-49
2022/09/30 11:05:42;;;;;;;4.65;2.30;;;13.90;99.90;;;;;;5070585;28;20044;-52
2022/09/30 11:08:25;;;;;;;6.05;2.53;;;13.80;99.90;;;;;;5071292;28;20103;-50
2022/09/30 11:11:13;;;;;;;2.67;2.05;;;13.90;99.90;;;;;;5069580;28;20508;-48
2022/09/30 11:13:53;;;;;;;4.25;2.28;;;14.00;99.90;;;;;;5071022;28;20067;-49
2022/09/30 11:16:31;;;;;;;4.45;1.95;;;13.80;99.90;;;;;;5071863;28;20492;-51
2022/09/30 11:19:08;;;;;;;3.13;1.90;;;13.70;99.90;;;;;;5070135;28;20567;-51
2022/09/30 11:21:44;;;;;;;2.22;1.80;;;13.60;99.90;;;;;;5071615;28;20067;-50
2022/09/30 11:24:30;;;;;;;7.47;1.92;;;13.50;99.90;;;;;;5070772;28;20068;-50
2022/09/30 11:27:23;;;;;;;5.65;1.90;;;13.40;99.90;;;;;;5050496;28;20281;-51
2022/09/30 11:30:19;;;;;;;2.28;1.75;;;13.40;99.90;;;;;;5065914;28;20099;-49
2022/09/30 11:33:20;;;;;;;4.53;1.98;;;13.40;99.90;;;;;;5067726;28;20127;-50
2022/09/30 11:35:55;;;;;;;2.85;1.77;;;13.50;99.90;;;;;;5071011;28;20120;-51
2022/09/30 11:38:49;;;;;;;2.20;1.52;;;13.70;99.90;;;;;;5070389;28;20098;-49
2022/09/30 11:41:32;;;;;;;3.22;1.58;;;13.80;99.90;;;;;;5066926;28;20069;-49
2022/09/30 11:44:17;;;;;;;3.08;1.17;;;14.00;99.90;;;;;;5070891;28;20083;-48
2022/09/30 11:47:02;;;;;;;8.30;1.70;;;14.10;99.90;;;;;;5071239;28;20120;-48
2022/09/30 11:49:54;;;;;;;3.03;1.70;;;14.20;99.90;;;;;;5070773;28;20102;-51
2022/09/30 11:52:26;;;;;;;1.60;1.25;;;14.30;99.90;;;;;;5071145;28;20128;-49
2022/09/30 11:55:20;;;;;;;1.83;1.00;;;14.30;99.90;;;;;;5071009;28;20729;-48
2022/09/30 11:58:06;;;;;;;1.40;1.30;;;14.20;99.90;;;;;;5069053;28;20044;-48
2022/09/30 12:01:13;;;;;;;3.10;1.60;;;14.20;99.90;;;;;;5071041;28;20040;-49
2022/09/30 12:03:46;;;;;;;7.55;1.48;;;14.20;99.90;;;;;;5062931;28;20065;-49
2022/09/30 12:06:25;;;;;;;2.13;1.60;;;14.20;99.90;;;;;;5060026;28;20128;-51
2022/09/30 12:09:00;;;;;;;2.03;1.67;;;14.20;99.90;;;;;;5070509;28;20044;-49
2022/09/30 12:11:27;;;;;;;4.75;1.60;;;14.20;99.90;;;;;;5070976;28;20045;-52
2022/09/30 12:13:59;;;;;;;2.83;1.55;;;14.10;99.90;;;;;;5070547;28;20084;-49
2022/09/30 12:16:30;;;;;;;6.15;1.95;;;14.00;99.90;;;;;;5069420;28;20091;-49
2022/09/30 12:19:12;;;;;;;7.10;1.80;;;14.00;99.90;;;;;;5070221;28;20051;-48
2022/09/30 12:21:48;;;;;;;1.67;1.30;;;14.00;99.90;;;;;;5063609;28;20090;-50
2022/09/30 12:24:35;;;;;;;1.35;1.13;;;13.90;99.90;;;;;;5070108;28;20099;-50
2022/09/30 12:27:20;;;;;;;3.63;1.60;;;14.10;99.90;;;;;;5070553;28;20095;-48
2022/09/30 12:30:19;;;;;;;1.80;1.38;;;14.30;99.90;;;;;;5064775;28;20047;-51
2022/09/30 12:32:58;;;;;;;3.35;1.48;;;14.40;99.90;;;;;;5070517;28;20041;-50
2022/09/30 12:35:42;;;;;;;3.00;1.75;;;14.50;99.90;;;;;;5069692;28;20048;-50
2022/09/30 12:38:26;;;;;;;1.55;1.33;;;14.40;99.90;;;;;;5070809;28;20465;-51
2022/09/30 12:41:16;;;;;;;5.40;1.30;;;14.30;99.90;;;;;;5063099;28;20119;-49
2022/09/30 12:44:00;;;;;;;4.20;1.40;;;14.30;99.90;;;;;;5047848;28;20080;-51
2022/09/30 12:46:57;;;;;;;1.50;1.23;;;14.30;99.90;;;;;;5070188;28;20064;-49
2022/09/30 12:49:28;;;;;;;2.30;1.27;;;14.20;99.90;;;;;;5070330;28;20068;-49
2022/09/30 12:52:04;;;;;;;2.33;1.65;;;14.10;99.90;;;;;;5072409;28;20790;-49
2022/09/30 12:54:39;;;;;;;2.40;1.73;;;14.30;99.90;;;;;;5070576;28;20119;-49
2022/09/30 12:57:08;;;;;;;2.22;1.67;;;14.40;99.90;;;;;;5074310;28;20076;-52
2022/09/30 12:59:43;;;;;;;1.70;1.30;;;14.50;99.90;;;;;;5073982;28;20493;-50
2022/09/30 13:02:27;;;;;;;1.95;1.35;;;14.50;99.90;;;;;;5073628;28;20075;-52
2022/09/30 13:05:43;;;;;;;2.58;1.42;;;14.50;99.90;;;;;;5070815;28;20187;-50
2022/09/30 13:08:15;;;;;;;2.03;1.70;;;14.70;99.90;;;;;;5074045;28;20466;-48
2022/09/30 13:10:56;;;;;;;4.38;2.22;;;14.60;99.90;;;;;;5072591;28;20048;-49
2022/09/30 13:13:27;;;;;;;2.95;1.50;;;14.50;99.90;;;;;;5073841;28;20036;-49
2022/09/30 13:16:01;;;;;;;2.30;1.20;;;14.40;99.90;;;;;;5063608;28;20079;-49
2022/09/30 13:18:31;;;;;;;1.52;1.10;;;14.30;99.90;;;;;;5084267;28;20064;-49
2022/09/30 13:21:04;;;;;;;3.83;1.50;;;14.30;99.90;;;;;;5077748;28;20083;-48
2022/09/30 13:23:50;;;;;;;1.67;1.25;;;14.30;99.90;;;;;;5073213;28;20071;-50
2022/09/30 13:26:23;;;;;;;2.00;1.10;;;14.40;99.90;;;;;;5071750;28;20075;-48
2022/09/30 13:28:51;;;;;;;1.02;0.88;;;14.40;99.90;;;;;;5073446;28;20072;-50
2022/09/30 13:31:25;;;;;;;2.92;1.35;;;14.40;99.90;;;;;;5068867;28;20110;-48
2022/09/30 13:34:01;;;;;;;6.03;1.27;;;14.30;99.90;;;;;;5072524;28;20119;-50
2022/09/30 13:36:57;;;;;;;2.67;1.33;;;14.20;99.90;;;;;;5073117;28;20086;-49